Time;durP1;ratioP1;P1;durP2;ratioP2;P2;SDS_P1;SDS_P2;PMS_P1;PMS_P2;Temp;Humidity;BMP_temperature;BMP_pressure;BME280_temperature;BME280_humidity;BME280_pressure;Samples;Min_cycle;Max_cycle;Signal;HPM_P1;HPM_P2
2022/08/09 00:02:04;;;;;;;;;;;;;;;29.83;39.18;100941.62;104911;1302;62280;-84
2022/08/09 00:04:30;;;;;;;;;;;;;;;29.82;39.11;100939.49;104896;1302;73795;-85
2022/08/09 00:06:55;;;;;;;;;;;;;;;29.82;39.02;100938.59;104858;1302;62197;-85
2022/08/09 00:09:21;;;;;;;;;;;;;;;29.83;39.19;100939.09;105139;1302;62097;-85
2022/08/09 00:11:46;;;;;;;;;;;;;;;29.82;39.05;100937.18;104888;1302;62077;-84
2022/08/09 00:14:12;;;;;;;;;;;;;;;29.82;38.99;100934.11;105147;1300;62193;-85
2022/08/09 00:16:38;;;;;;;;;;;;;;;29.82;39.13;100933.20;104893;1302;73864;-85
2022/08/09 00:19:03;;;;;;;;;;;;;;;29.82;39.10;100934.66;105097;1302;62863;-85
2022/08/09 00:21:29;;;;;;;;;;;;;;;29.82;39.15;100931.40;104892;1302;62110;-83
2022/08/09 00:23:54;;;;;;;;;;;;;;;29.82;39.22;100936.44;105125;1302;62132;-84
2022/08/09 00:26:20;;;;;;;;;;;;;;;29.82;39.13;100937.58;105158;1302;62167;-82
2022/08/09 00:28:46;;;;;;;;;;;;;;;29.82;39.24;100934.49;104885;1302;72734;-84
2022/08/09 00:31:11;;;;;;;;;;;;;;;29.82;39.06;100932.70;105099;1301;62034;-85
2022/08/09 00:33:38;;;;;;;;;;;;;;;29.81;39.08;100931.87;104893;1302;62099;-83
2022/08/09 00:36:04;;;;;;;;;;;;;;;29.81;39.20;100934.55;104907;1302;62820;-84
2022/08/09 00:38:29;;;;;;;;;;;;;;;29.81;39.17;100927.14;104830;1302;62201;-83
2022/08/09 00:40:55;;;;;;;;;;;;;;;29.81;39.30;100931.87;104873;1302;62075;-83
2022/08/09 00:43:20;;;;;;;;;;;;;;;29.81;39.03;100930.20;105130;1300;76547;-84
2022/08/09 00:45:46;;;;;;;;;;;;;;;29.81;39.29;100933.70;104893;1302;62103;-84
2022/08/09 00:48:11;;;;;;;;;;;;;;;29.80;39.11;100934.84;104881;1302;62133;-83
2022/08/09 00:50:37;;;;;;;;;;;;;;;29.80;39.04;100935.00;104865;1302;62184;-84
2022/08/09 00:53:02;;;;;;;;;;;;;;;29.81;39.18;100935.55;104903;1302;63206;-84
2022/08/09 00:55:28;;;;;;;;;;;;;;;29.80;39.14;100936.33;104849;1302;75683;-84
2022/08/09 00:57:53;;;;;;;;;;;;;;;29.80;39.31;100933.77;105164;1302;62092;-84
2022/08/09 01:00:19;;;;;;;;;;;;;;;29.80;39.27;100934.14;105120;1300;62125;-83
2022/08/09 01:03:11;;;;;;;;;;;;;;;29.80;39.41;100937.27;104849;1302;62172;-84
2022/08/09 01:05:42;;;;;;;;;;;;;;;29.79;39.38;100930.06;104894;1302;76632;-84
2022/08/09 01:08:16;;;;;;;;;;;;;;;29.80;39.32;100933.27;104870;1302;62198;-84
2022/08/09 01:11:02;;;;;;;;;;;;;;;29.80;39.11;100937.45;105138;1302;61967;-84
2022/08/09 01:13:40;;;;;;;;;;;;;;;29.80;39.28;100929.46;104866;1302;73926;-84
2022/08/09 01:16:06;;;;;;;;;;;;;;;29.79;39.21;100927.85;104853;1302;74406;-84
2022/08/09 01:18:31;;;;;;;;;;;;;;;29.79;39.27;100925.67;104889;1302;62076;-84
2022/08/09 01:21:00;;;;;;;;;;;;;;;29.79;39.17;100923.54;104880;1302;62259;-84
2022/08/09 01:23:35;;;;;;;;;;;;;;;29.79;39.15;100926.05;105129;1302;62058;-84
2022/08/09 01:26:06;;;;;;;;;;;;;;;29.79;39.28;100926.09;105132;1302;74943;-84
2022/08/09 01:28:32;;;;;;;;;;;;;;;29.78;39.53;100925.27;104879;1302;61963;-83
2022/08/09 01:30:58;;;;;;;;;;;;;;;29.78;39.29;100928.33;105173;1302;62095;-83
2022/08/09 01:33:24;;;;;;;;;;;;;;;29.79;39.28;100925.19;104894;1303;62089;-85
2022/08/09 01:35:52;;;;;;;;;;;;;;;29.79;39.30;100926.29;104905;1302;62098;-84
2022/08/09 01:38:18;;;;;;;;;;;;;;;29.78;39.20;100921.46;105124;1302;63259;-84
2022/08/09 01:40:47;;;;;;;;;;;;;;;29.79;39.38;100919.23;104870;1303;62215;-84
2022/08/09 01:43:12;;;;;;;;;;;;;;;29.78;39.26;100918.74;104810;1301;72712;-83
2022/08/09 01:45:39;;;;;;;;;;;;;;;29.78;39.20;100913.86;104842;1302;62102;-85
2022/08/09 01:48:04;;;;;;;;;;;;;;;29.78;39.24;100920.02;104885;1302;62011;-85
2022/08/09 01:50:30;;;;;;;;;;;;;;;29.78;39.42;100921.11;105133;1302;62184;-84
2022/08/09 01:52:56;;;;;;;;;;;;;;;29.77;39.32;100921.72;104879;1302;62190;-84
2022/08/09 01:55:21;;;;;;;;;;;;;;;29.78;39.29;100922.05;104926;1302;59485;-85
2022/08/09 01:57:48;;;;;;;;;;;;;;;29.77;39.35;100918.84;105141;1302;75513;-84
2022/08/09 02:00:14;;;;;;;;;;;;;;;29.77;39.21;100919.38;104920;1302;62015;-84
2022/08/09 02:02:40;;;;;;;;;;;;;;;29.77;39.27;100918.33;104868;1302;62205;-85
2022/08/09 02:05:07;;;;;;;;;;;;;;;29.77;39.54;100917.07;105122;1302;62176;-85
2022/08/09 02:07:33;;;;;;;;;;;;;;;29.76;39.37;100918.56;104864;1302;62236;-86
2022/08/09 02:10:00;;;;;;;;;;;;;;;29.77;39.41;100919.98;104890;1302;62022;-85
2022/08/09 02:12:25;;;;;;;;;;;;;;;29.76;39.45;100925.08;105135;1302;62038;-85
2022/08/09 02:14:51;;;;;;;;;;;;;;;29.76;39.22;100927.84;104895;1303;62051;-84
2022/08/09 02:17:17;;;;;;;;;;;;;;;29.76;39.32;100927.84;105121;1302;62019;-85
2022/08/09 02:19:43;;;;;;;;;;;;;;;29.76;39.37;100926.95;104892;1302;62205;-84
2022/08/09 02:22:10;;;;;;;;;;;;;;;29.76;39.09;100929.65;104889;1302;62284;-85
2022/08/09 02:24:35;;;;;;;;;;;;;;;29.76;39.38;100930.91;104930;1302;63092;-85
2022/08/09 02:27:02;;;;;;;;;;;;;;;29.75;39.43;100929.88;104824;1302;62191;-85
2022/08/09 02:29:29;;;;;;;;;;;;;;;29.75;39.38;100931.89;105088;1302;76809;-85
2022/08/09 02:31:57;;;;;;;;;;;;;;;29.75;39.39;100933.52;104916;1302;60899;-85
2022/08/09 02:34:27;;;;;;;;;;;;;;;29.76;39.33;100931.28;104912;1303;62193;-85
2022/08/09 02:36:54;;;;;;;;;;;;;;;29.75;39.37;100926.98;104913;1302;72840;-84
2022/08/09 02:39:20;;;;;;;;;;;;;;;29.75;39.50;100925.56;105116;1302;62004;-82
2022/08/09 02:41:51;;;;;;;;;;;;;;;29.75;39.45;100927.05;104886;1302;61964;-81
2022/08/09 02:44:19;;;;;;;;;;;;;;;29.75;39.48;100929.05;105125;1302;62138;-82
2022/08/09 02:46:45;;;;;;;;;;;;;;;29.75;39.32;100929.40;104797;1302;71291;-83
2022/08/09 02:49:11;;;;;;;;;;;;;;;29.74;39.43;100926.91;105112;1302;62140;-86
2022/08/09 02:51:37;;;;;;;;;;;;;;;29.74;39.37;100927.63;105157;1302;62107;-82
2022/08/09 02:54:03;;;;;;;;;;;;;;;29.74;39.51;100923.48;104879;1302;62209;-82
2022/08/09 02:56:29;;;;;;;;;;;;;;;29.74;39.36;100927.67;104859;1302;62134;-83
2022/08/09 02:58:55;;;;;;;;;;;;;;;29.74;39.32;100928.55;105122;1302;62098;-84
2022/08/09 03:01:20;;;;;;;;;;;;;;;29.74;39.35;100926.23;104938;1302;62094;-84
2022/08/09 03:03:46;;;;;;;;;;;;;;;29.73;39.40;100931.91;104912;1302;62137;-84
2022/08/09 03:06:13;;;;;;;;;;;;;;;29.74;39.37;100929.13;104862;1302;62056;-84
2022/08/09 03:08:45;;;;;;;;;;;;;;;29.74;39.37;100931.68;104901;1303;61966;-84
2022/08/09 03:11:12;;;;;;;;;;;;;;;29.74;39.34;100936.41;104880;1302;76689;-84
2022/08/09 03:13:38;;;;;;;;;;;;;;;29.73;39.52;100937.35;104903;1303;62117;-84
2022/08/09 03:16:04;;;;;;;;;;;;;;;29.73;39.50;100938.98;104917;1302;62039;-84
2022/08/09 03:18:29;;;;;;;;;;;;;;;29.73;39.49;100941.53;104876;1302;62111;-83
2022/08/09 03:20:55;;;;;;;;;;;;;;;29.74;39.44;100944.95;104892;1302;62105;-84
2022/08/09 03:23:20;;;;;;;;;;;;;;;29.73;39.43;100947.35;104953;1302;62165;-84
2022/08/09 03:25:46;;;;;;;;;;;;;;;29.73;39.50;100950.05;104914;1302;62092;-84
2022/08/09 03:28:12;;;;;;;;;;;;;;;29.73;39.42;100946.44;105131;1302;62046;-84
2022/08/09 03:30:37;;;;;;;;;;;;;;;29.73;39.50;100950.44;104872;1302;62083;-84
2022/08/09 03:33:04;;;;;;;;;;;;;;;29.73;39.52;100950.85;105142;1302;62190;-84
2022/08/09 03:35:30;;;;;;;;;;;;;;;29.73;39.54;100950.08;104879;1300;62071;-85
2022/08/09 03:37:55;;;;;;;;;;;;;;;29.73;39.50;100950.45;104918;1301;62095;-85
2022/08/09 03:40:21;;;;;;;;;;;;;;;29.73;39.40;100951.20;104931;1302;62233;-85
2022/08/09 03:42:46;;;;;;;;;;;;;;;29.73;39.46;100948.46;105114;1302;72813;-85
2022/08/09 03:45:11;;;;;;;;;;;;;;;29.73;39.58;100947.55;105112;1302;62095;-85
2022/08/09 03:47:37;;;;;;;;;;;;;;;29.73;39.61;100947.39;104882;1302;62115;-85
2022/08/09 03:50:04;;;;;;;;;;;;;;;29.73;39.61;100945.95;104916;1302;62220;-86
2022/08/09 03:52:30;;;;;;;;;;;;;;;29.73;39.46;100942.48;104857;1302;62202;-86
2022/08/09 03:54:55;;;;;;;;;;;;;;;29.72;39.53;100934.12;104880;1301;62066;-85
2022/08/09 03:57:21;;;;;;;;;;;;;;;29.69;39.34;100938.35;104975;1302;60898;-85
2022/08/09 03:59:50;;;;;;;;;;;;;;;29.67;39.55;100938.04;104887;1302;62102;-85
2022/08/09 04:02:17;;;;;;;;;;;;;;;29.66;39.62;100937.66;105066;1302;61973;-86
2022/08/09 04:04:42;;;;;;;;;;;;;;;29.62;39.47;100935.00;104907;1303;61990;-86
2022/08/09 04:07:08;;;;;;;;;;;;;;;29.59;39.34;100932.19;104903;1302;62105;-86
2022/08/09 04:09:33;;;;;;;;;;;;;;;29.57;39.50;100931.30;104900;1303;60128;-86
2022/08/09 04:12:08;;;;;;;;;;;;;;;29.54;39.44;100934.63;105122;1302;62175;-86
2022/08/09 04:14:33;;;;;;;;;;;;;;;29.53;39.53;100934.58;105125;1302;73907;-85
2022/08/09 04:16:59;;;;;;;;;;;;;;;29.52;39.54;100935.99;104887;1302;62144;-85
2022/08/09 04:19:24;;;;;;;;;;;;;;;29.52;39.63;100932.94;104886;1302;62318;-85
2022/08/09 04:21:50;;;;;;;;;;;;;;;29.51;39.49;100937.55;105079;1302;62114;-85
2022/08/09 04:24:15;;;;;;;;;;;;;;;29.50;39.67;100936.71;104949;1302;62182;-85
2022/08/09 04:26:41;;;;;;;;;;;;;;;29.50;39.75;100932.46;104922;1302;62187;-84
2022/08/09 04:29:06;;;;;;;;;;;;;;;29.49;39.60;100935.95;104895;1302;62193;-85
2022/08/09 04:31:32;;;;;;;;;;;;;;;29.48;39.53;100939.17;104892;1302;62079;-85
2022/08/09 04:33:57;;;;;;;;;;;;;;;29.47;39.57;100941.59;104831;1302;62630;-84
2022/08/09 04:36:23;;;;;;;;;;;;;;;29.46;39.55;100940.97;104722;1305;62298;-86
2022/08/09 04:38:49;;;;;;;;;;;;;;;29.45;39.50;100942.49;104695;1305;73967;-83
2022/08/09 04:41:14;;;;;;;;;;;;;;;29.45;39.48;100943.78;104747;1305;62286;-83
2022/08/09 04:43:40;;;;;;;;;;;;;;;29.45;39.44;100942.89;104729;1305;63132;-83
2022/08/09 04:46:06;;;;;;;;;;;;;;;29.45;39.58;100945.27;104675;1305;62102;-84
2022/08/09 04:48:31;;;;;;;;;;;;;;;29.45;39.34;100945.28;104689;1305;62412;-84
2022/08/09 04:50:57;;;;;;;;;;;;;;;29.45;39.38;100942.36;104626;1305;72866;-84
2022/08/09 04:53:22;;;;;;;;;;;;;;;29.45;39.43;100944.60;104662;1305;62261;-84
2022/08/09 04:55:49;;;;;;;;;;;;;;;29.44;39.44;100939.89;104598;1305;62431;-83
2022/08/09 04:58:14;;;;;;;;;;;;;;;29.45;39.47;100939.49;104662;1305;62505;-84
2022/08/09 05:00:40;;;;;;;;;;;;;;;29.44;39.50;100940.64;104646;1305;62235;-84
2022/08/09 05:03:05;;;;;;;;;;;;;;;29.44;39.39;100938.64;104604;1305;60933;-84
2022/08/09 05:05:31;;;;;;;;;;;;;;;29.44;39.50;100937.59;104572;1305;75574;-84
2022/08/09 05:07:56;;;;;;;;;;;;;;;29.42;39.45;100941.13;104842;1302;62103;-84
2022/08/09 05:10:22;;;;;;;;;;;;;;;29.43;39.32;100946.71;104903;1302;62101;-83
2022/08/09 05:12:48;;;;;;;;;;;;;;;29.43;39.23;100941.27;104923;1302;62090;-85
2022/08/09 05:15:13;;;;;;;;;;;;;;;29.44;39.70;100942.11;104949;1302;62194;-84
2022/08/09 05:17:39;;;;;;;;;;;;;;;29.45;39.33;100943.52;104823;1302;77733;-84
2022/08/09 05:20:04;;;;;;;;;;;;;;;29.45;39.32;100938.92;104689;1302;60800;-84
2022/08/09 05:22:30;;;;;;;;;;;;;;;29.46;39.50;100940.77;104783;1302;62114;-84
2022/08/09 05:24:55;;;;;;;;;;;;;;;29.48;39.37;100943.36;105049;1302;62042;-84
2022/08/09 05:27:21;;;;;;;;;;;;;;;29.50;39.56;100946.05;104844;1302;62093;-84
2022/08/09 05:29:47;;;;;;;;;;;;;;;29.51;39.45;100940.80;105131;1302;75528;-84
2022/08/09 05:32:12;;;;;;;;;;;;;;;29.52;39.30;100941.04;104831;1302;62209;-83
2022/08/09 05:34:37;;;;;;;;;;;;;;;29.53;39.31;100943.89;104883;1302;62100;-84
2022/08/09 05:37:03;;;;;;;;;;;;;;;29.53;39.31;100951.67;104907;1302;62074;-84
2022/08/09 05:39:29;;;;;;;;;;;;;;;29.53;39.33;100961.67;104916;1302;62129;-84
2022/08/09 05:41:55;;;;;;;;;;;;;;;29.52;39.37;100971.70;105202;1302;62084;-83
2022/08/09 05:44:21;;;;;;;;;;;;;;;29.51;39.29;100970.60;104788;1302;62088;-84
2022/08/09 05:46:46;;;;;;;;;;;;;;;29.49;39.25;100966.63;104836;1303;62168;-83
2022/08/09 05:49:11;;;;;;;;;;;;;;;29.48;39.20;100975.05;104957;1302;62231;-82
2022/08/09 05:51:37;;;;;;;;;;;;;;;29.49;39.16;100977.70;104989;1302;62072;-81
2022/08/09 05:54:02;;;;;;;;;;;;;;;29.49;39.25;100960.98;104815;1301;62197;-84
2022/08/09 05:56:28;;;;;;;;;;;;;;;29.50;39.19;100952.55;104871;1302;62101;-83
2022/08/09 05:58:57;;;;;;;;;;;;;;;29.50;39.10;100957.41;104912;1302;62077;-84
2022/08/09 06:01:26;;;;;;;;;;;;;;;29.51;39.05;100969.14;104723;1302;72923;-83
2022/08/09 06:03:52;;;;;;;;;;;;;;;29.51;39.11;100977.41;104920;1302;75602;-84
2022/08/09 06:06:17;;;;;;;;;;;;;;;29.52;39.09;100976.45;104625;1303;62078;-82
2022/08/09 06:08:43;;;;;;;;;;;;;;;29.53;39.32;100976.33;104752;1303;62188;-82
2022/08/09 06:11:08;;;;;;;;;;;;;;;29.54;39.09;100980.02;104678;1303;62121;-82
2022/08/09 06:13:34;;;;;;;;;;;;;;;29.56;39.11;100982.73;104768;1302;62170;-82
2022/08/09 06:16:00;;;;;;;;;;;;;;;29.57;38.99;100981.18;105041;1302;62087;-84
2022/08/09 06:18:25;;;;;;;;;;;;;;;29.58;38.98;100978.88;104755;1303;62102;-84
2022/08/09 06:20:51;;;;;;;;;;;;;;;29.59;39.10;100974.39;104845;1302;62167;-84
2022/08/09 06:23:16;;;;;;;;;;;;;;;29.60;38.97;100977.41;104845;1302;61971;-85
2022/08/09 06:25:42;;;;;;;;;;;;;;;29.59;39.00;100980.54;105112;1302;62058;-84
2022/08/09 06:28:07;;;;;;;;;;;;;;;29.60;38.90;100978.68;103948;1302;1548336;-84
2022/08/09 06:30:33;;;;;;;;;;;;;;;29.60;38.91;100981.23;104771;1303;62112;-85
2022/08/09 06:32:58;;;;;;;;;;;;;;;29.60;38.73;100984.45;105084;1302;62071;-85
2022/08/09 06:35:24;;;;;;;;;;;;;;;29.60;38.91;100986.97;105065;1302;62125;-85
2022/08/09 06:37:49;;;;;;;;;;;;;;;29.61;39.03;100991.77;104905;1302;62120;-85
2022/08/09 06:40:15;;;;;;;;;;;;;;;29.62;38.73;100992.46;105102;1302;62062;-85
2022/08/09 06:42:40;;;;;;;;;;;;;;;29.62;38.93;100992.45;104992;1301;62131;-84
2022/08/09 06:45:06;;;;;;;;;;;;;;;29.62;38.82;100992.05;104833;1302;62083;-85
2022/08/09 06:47:31;;;;;;;;;;;;;;;29.63;38.79;100989.30;104658;1302;62091;-84
2022/08/09 06:49:57;;;;;;;;;;;;;;;29.64;38.85;100985.73;104644;1301;62055;-84
2022/08/09 06:52:22;;;;;;;;;;;;;;;29.64;38.86;100986.42;104824;1301;62438;-84
2022/08/09 06:54:48;;;;;;;;;;;;;;;29.66;38.77;100983.67;104887;1302;62042;-84
2022/08/09 06:57:13;;;;;;;;;;;;;;;29.67;38.88;100986.41;104690;1302;62160;-84
2022/08/09 06:59:39;;;;;;;;;;;;;;;29.68;38.85;100987.09;104793;1302;62198;-84
2022/08/09 07:02:04;;;;;;;;;;;;;;;29.68;38.58;100981.44;104623;1303;62114;-84
2022/08/09 07:04:31;;;;;;;;;;;;;;;29.69;38.80;100981.89;104676;1302;60350;-85
2022/08/09 07:06:56;;;;;;;;;;;;;;;29.71;38.53;100983.73;104665;1302;61981;-85
2022/08/09 07:09:22;;;;;;;;;;;;;;;29.71;38.78;100979.48;104824;1302;62205;-84
2022/08/09 07:11:47;;;;;;;;;;;;;;;29.72;38.84;100983.69;104852;1302;62100;-85
2022/08/09 07:14:16;;;;;;;;;;;;;;;29.74;38.69;100985.04;104637;1302;62116;-85
2022/08/09 07:16:42;;;;;;;;;;;;;;;29.75;38.67;100984.90;104813;1301;62100;-84
2022/08/09 07:19:10;;;;;;;;;;;;;;;29.75;38.66;100985.04;104908;1301;60317;-84
2022/08/09 07:21:36;;;;;;;;;;;;;;;29.75;38.68;100986.48;104871;1302;72885;-84
2022/08/09 07:24:02;;;;;;;;;;;;;;;29.77;38.56;100985.05;105517;1302;61439;-85
2022/08/09 07:26:28;;;;;;;;;;;;;;;29.78;38.64;100984.05;104851;1302;62130;-84
2022/08/09 07:28:53;;;;;;;;;;;;;;;29.79;38.66;100985.44;104783;1302;60229;-84
2022/08/09 07:31:19;;;;;;;;;;;;;;;29.80;38.52;100989.58;104905;1301;62057;-84
2022/08/09 07:33:44;;;;;;;;;;;;;;;29.81;38.47;100983.91;104745;1302;62062;-84
2022/08/09 07:36:10;;;;;;;;;;;;;;;29.82;38.78;100984.17;104675;1302;76580;-84
2022/08/09 07:38:35;;;;;;;;;;;;;;;29.82;38.56;100986.90;104699;1302;62091;-84
2022/08/09 07:41:01;;;;;;;;;;;;;;;29.83;38.70;100989.73;104914;1302;62204;-84
2022/08/09 07:43:26;;;;;;;;;;;;;;;29.83;38.38;100986.64;104939;1302;60245;-84
2022/08/09 07:45:52;;;;;;;;;;;;;;;29.82;38.67;100990.85;104857;1302;62192;-85
2022/08/09 07:48:17;;;;;;;;;;;;;;;29.83;38.39;100992.59;104645;1302;62112;-84
2022/08/09 07:50:43;;;;;;;;;;;;;;;29.83;38.49;100992.02;104735;1303;62083;-84
2022/08/09 07:53:08;;;;;;;;;;;;;;;29.84;38.46;100991.45;104780;1302;62762;-84
2022/08/09 07:55:34;;;;;;;;;;;;;;;29.83;38.38;100986.06;104595;1305;62321;-84
2022/08/09 07:57:59;;;;;;;;;;;;;;;29.83;38.29;100982.77;105001;1302;62083;-82
2022/08/09 08:00:25;;;;;;;;;;;;;;;29.83;38.55;100976.77;104967;1302;62088;-83
2022/08/09 08:02:50;;;;;;;;;;;;;;;29.83;38.74;100971.71;104949;1302;62104;-84
2022/08/09 08:05:16;;;;;;;;;;;;;;;29.83;38.44;100969.01;104773;1302;62438;-85
2022/08/09 08:07:41;;;;;;;;;;;;;;;29.83;38.57;100971.02;104879;1302;62221;-84
2022/08/09 08:10:07;;;;;;;;;;;;;;;29.82;38.36;100975.59;105098;1302;62623;-83
2022/08/09 08:12:32;;;;;;;;;;;;;;;29.82;38.46;100969.08;104829;1302;76540;-84
2022/08/09 08:14:58;;;;;;;;;;;;;;;29.82;38.31;100969.29;105094;1302;62107;-85
2022/08/09 08:17:23;;;;;;;;;;;;;;;29.82;38.35;100967.97;104754;1302;62096;-85
2022/08/09 08:19:49;;;;;;;;;;;;;;;29.82;38.39;100966.73;104783;1302;62145;-84
2022/08/09 08:22:14;;;;;;;;;;;;;;;29.82;38.33;100967.35;104862;1303;62074;-83
2022/08/09 08:24:40;;;;;;;;;;;;;;;29.81;38.27;100961.23;104839;1302;76354;-83
2022/08/09 08:27:05;;;;;;;;;;;;;;;29.81;38.12;100962.34;104820;1302;62795;-83
2022/08/09 08:29:31;;;;;;;;;;;;;;;29.80;38.04;100964.55;105059;1302;62194;-83
2022/08/09 08:31:56;;;;;;;;;;;;;;;29.80;38.14;100960.77;105007;1302;62098;-83
2022/08/09 08:34:21;;;;;;;;;;;;;;;29.80;38.08;100960.27;104792;1303;62268;-82
2022/08/09 08:36:47;;;;;;;;;;;;;;;29.80;38.31;100952.45;104693;1303;62104;-83
2022/08/09 08:39:13;;;;;;;;;;;;;;;29.80;38.15;100955.34;105035;1302;63350;-84
2022/08/09 08:41:39;;;;;;;;;;;;;;;29.81;38.24;100960.14;105072;1302;62190;-84
2022/08/09 08:44:04;;;;;;;;;;;;;;;29.81;37.99;100959.63;104803;1302;62781;-83
2022/08/09 08:46:31;;;;;;;;;;;;;;;29.81;38.17;100953.06;104838;1303;62099;-84
2022/08/09 08:48:56;;;;;;;;;;;;;;;29.81;38.04;100954.31;104833;1303;62192;-83
2022/08/09 08:51:22;;;;;;;;;;;;;;;29.81;38.10;100952.86;104799;1303;62055;-84
2022/08/09 08:53:47;;;;;;;;;;;;;;;29.81;38.20;100954.12;104743;1303;62092;-83
2022/08/09 08:56:12;;;;;;;;;;;;;;;29.82;38.03;100948.29;105035;1302;62064;-84
2022/08/09 08:58:38;;;;;;;;;;;;;;;29.81;38.17;100947.21;104891;1302;63846;-83
2022/08/09 09:01:03;;;;;;;;;;;;;;;29.82;37.98;100948.46;104728;1303;62139;-83
2022/08/09 09:03:33;;;;;;;;;;;;;;;29.82;38.16;100947.30;104713;1302;62098;-84
2022/08/09 09:05:59;;;;;;;;;;;;;;;29.82;38.18;100943.91;104727;1303;61990;-83
2022/08/09 09:08:24;;;;;;;;;;;;;;;29.82;37.85;100937.55;104763;1302;62125;-83
2022/08/09 09:10:50;;;;;;;;;;;;;;;29.82;38.01;100933.89;104849;1302;62225;-83
2022/08/09 09:13:16;;;;;;;;;;;;;;;29.82;37.88;100936.43;104686;1303;62093;-83
2022/08/09 09:15:41;;;;;;;;;;;;;;;29.83;38.06;100935.80;104730;1302;62071;-83
2022/08/09 09:18:17;;;;;;;;;;;;;;;29.84;37.98;100930.99;104725;1302;62110;-83
2022/08/09 09:20:43;;;;;;;;;;;;;;;29.84;37.89;100929.49;104796;1302;74300;-83
2022/08/09 09:23:10;;;;;;;;;;;;;;;29.85;38.04;100925.23;104912;1302;76811;-83
2022/08/09 09:25:37;;;;;;;;;;;;;;;29.86;37.89;100931.70;104838;1301;62068;-84
2022/08/09 09:28:03;;;;;;;;;;;;;;;29.86;37.99;100935.46;104621;1302;61666;-83
2022/08/09 09:30:29;;;;;;;;;;;;;;;29.87;37.80;100928.70;104664;1302;60441;-83
2022/08/09 09:33:04;;;;;;;;;;;;;;;29.87;37.66;100927.04;104593;1303;62228;-83
2022/08/09 09:35:30;;;;;;;;;;;;;;;29.87;37.76;100925.05;104849;1303;62043;-83
2022/08/09 09:37:56;;;;;;;;;;;;;;;29.88;37.76;100921.73;104658;1302;62179;-83
2022/08/09 09:40:25;;;;;;;;;;;;;;;29.88;37.58;100922.77;104596;1302;62059;-83
2022/08/09 09:42:54;;;;;;;;;;;;;;;29.88;37.44;100927.84;104612;1303;77731;-83
2022/08/09 09:45:19;;;;;;;;;;;;;;;29.88;37.64;100918.60;104815;1302;62077;-83
2022/08/09 09:47:45;;;;;;;;;;;;;;;29.88;37.59;100919.81;104668;1302;62141;-83
2022/08/09 09:50:10;;;;;;;;;;;;;;;29.89;37.61;100916.52;104580;1302;62088;-83
2022/08/09 09:52:47;;;;;;;;;;;;;;;29.88;37.43;100916.20;104490;1303;61059;-83
2022/08/09 09:55:14;;;;;;;;;;;;;;;29.89;37.38;100905.30;104872;1302;62049;-83
2022/08/09 09:57:39;;;;;;;;;;;;;;;29.89;37.49;100910.50;104830;1302;61971;-83
2022/08/09 10:00:05;;;;;;;;;;;;;;;29.90;37.32;100911.53;104615;1301;62217;-82
2022/08/09 10:02:43;;;;;;;;;;;;;;;29.90;37.30;100905.85;104668;1302;62107;-84
2022/08/09 10:05:09;;;;;;;;;;;;;;;29.90;37.19;100902.06;104858;1302;62216;-84
2022/08/09 10:07:34;;;;;;;;;;;;;;;29.90;37.37;100899.15;105000;1302;62085;-84
2022/08/09 10:10:00;;;;;;;;;;;;;;;29.91;37.55;100899.79;104859;1302;62171;-83
2022/08/09 10:12:46;;;;;;;;;;;;;;;29.91;37.47;100900.34;104851;1302;62130;-85
2022/08/09 10:15:14;;;;;;;;;;;;;;;29.90;37.22;100902.20;104852;1301;62187;-85
2022/08/09 10:17:41;;;;;;;;;;;;;;;29.91;37.05;100899.98;104906;1302;61976;-84
2022/08/09 10:20:20;;;;;;;;;;;;;;;29.91;37.18;100896.86;104817;1301;62476;-85
2022/08/09 10:22:46;;;;;;;;;;;;;;;29.91;37.15;100895.92;104600;1302;76544;-84
2022/08/09 10:25:12;;;;;;;;;;;;;;;29.91;37.30;100897.00;104890;1301;60250;-84
2022/08/09 10:27:37;;;;;;;;;;;;;;;29.92;37.15;100899.80;104666;1302;62112;-84
2022/08/09 10:30:04;;;;;;;;;;;;;;;29.92;37.23;100895.34;104580;1303;62326;-84
2022/08/09 10:32:29;;;;;;;;;;;;;;;29.92;37.05;100891.63;104950;1302;62282;-84
2022/08/09 10:34:55;;;;;;;;;;;;;;;29.92;36.89;100894.42;104772;1303;62156;-83
2022/08/09 10:37:20;;;;;;;;;;;;;;;29.92;36.64;100891.25;105036;1302;62067;-84
2022/08/09 10:39:46;;;;;;;;;;;;;;;29.92;36.77;100884.92;104958;1302;62091;-84
2022/08/09 10:42:13;;;;;;;;;;;;;;;29.93;36.78;100882.92;104647;1302;62089;-83
2022/08/09 10:44:38;;;;;;;;;;;;;;;29.92;37.00;100876.76;104703;1302;62036;-84
2022/08/09 10:47:24;;;;;;;;;;;;;;;29.92;36.67;100876.96;104648;1301;62143;-84
2022/08/09 10:50:07;;;;;;;;;;;;;;;29.92;36.63;100877.67;104704;1302;62551;-83
2022/08/09 10:52:51;;;;;;;;;;;;;;;29.92;36.65;100877.13;104894;1302;72814;-84
2022/08/09 10:55:27;;;;;;;;;;;;;;;29.92;36.47;100874.41;104887;1302;75596;-84
2022/08/09 10:57:52;;;;;;;;;;;;;;;29.92;36.57;100875.09;105022;1302;62020;-84
2022/08/09 11:00:34;;;;;;;;;;;;;;;29.92;36.47;100873.66;104690;1302;62082;-84
2022/08/09 11:03:00;;;;;;;;;;;;;;;29.93;36.58;100871.49;105033;1301;73155;-84
2022/08/09 11:05:28;;;;;;;;;;;;;;;29.92;36.40;100870.26;104710;1302;62098;-84
2022/08/09 11:07:54;;;;;;;;;;;;;;;29.92;36.52;100866.95;104884;1302;62101;-84
2022/08/09 11:10:45;;;;;;;;;;;;;;;29.93;36.58;100860.23;104849;1302;62208;-84
2022/08/09 11:13:14;;;;;;;;;;;;;;;29.92;36.53;100857.50;104947;1302;73678;-84
2022/08/09 11:15:40;;;;;;;;;;;;;;;29.93;36.56;100852.95;104890;1302;74942;-84
2022/08/09 11:18:05;;;;;;;;;;;;;;;29.92;36.40;100850.84;105060;1302;62095;-84
2022/08/09 11:20:38;;;;;;;;;;;;;;;29.93;36.63;100853.32;104993;1302;62081;-83
2022/08/09 11:23:03;;;;;;;;;;;;;;;29.92;36.57;100855.31;105070;1302;73874;-85
2022/08/09 11:25:32;;;;;;;;;;;;;;;29.92;36.64;100846.98;104676;1303;62091;-84
2022/08/09 11:27:57;;;;;;;;;;;;;;;29.92;36.53;100851.17;104954;1302;62090;-84
2022/08/09 11:30:25;;;;;;;;;;;;;;;29.92;36.54;100850.13;104846;1303;62105;-85
2022/08/09 11:32:58;;;;;;;;;;;;;;;29.92;36.59;100836.17;104735;1303;73983;-85
2022/08/09 11:35:27;;;;;;;;;;;;;;;29.92;36.75;100838.52;104758;1303;75528;-85
2022/08/09 11:38:12;;;;;;;;;;;;;;;29.91;36.52;100833.86;105125;1302;61990;-84
2022/08/09 11:40:38;;;;;;;;;;;;;;;29.91;36.68;100833.94;104862;1303;61962;-85
2022/08/09 11:43:04;;;;;;;;;;;;;;;29.91;36.56;100833.02;104897;1303;62251;-85
2022/08/09 11:45:31;;;;;;;;;;;;;;;29.91;36.83;100831.92;105123;1302;62070;-84
2022/08/09 11:48:00;;;;;;;;;;;;;;;29.90;36.49;100832.70;104692;1303;61987;-84
2022/08/09 11:50:26;;;;;;;;;;;;;;;29.90;36.49;100824.37;105044;1302;62070;-84
2022/08/09 11:52:58;;;;;;;;;;;;;;;29.90;36.71;100809.14;104711;1303;62179;-85
2022/08/09 11:55:39;;;;;;;;;;;;;;;29.91;36.54;100811.79;104997;1302;74681;-84
2022/08/09 11:58:10;;;;;;;;;;;;;;;29.90;36.63;100812.54;104905;1302;62002;-84
2022/08/09 12:00:40;;;;;;;;;;;;;;;29.91;36.56;100807.77;105095;1302;62213;-84
2022/08/09 12:03:13;;;;;;;;;;;;;;;29.91;36.59;100796.75;104891;1302;72934;-83
2022/08/09 12:05:39;;;;;;;;;;;;;;;29.90;36.68;100793.32;104866;1302;76707;-84
2022/08/09 12:08:08;;;;;;;;;;;;;;;29.91;36.64;100798.02;104914;1302;62087;-86
2022/08/09 12:10:34;;;;;;;;;;;;;;;29.91;36.63;100794.16;105023;1302;61938;-82
2022/08/09 12:12:59;;;;;;;;;;;;;;;29.91;36.55;100798.86;104836;1302;62059;-85
2022/08/09 12:15:25;;;;;;;;;;;;;;;29.91;36.65;100798.11;105128;1302;62213;-83
2022/08/09 12:17:51;;;;;;;;;;;;;;;29.92;36.74;100795.36;104927;1302;62196;-85
2022/08/09 12:20:18;;;;;;;;;;;;;;;29.92;36.59;100788.08;104928;1302;62078;-85
2022/08/09 12:22:43;;;;;;;;;;;;;;;29.92;36.58;100787.70;104942;1303;62142;-85
2022/08/09 12:25:09;;;;;;;;;;;;;;;29.92;36.60;100783.52;104968;1302;62748;-84